Time;durP1;ratioP1;P1;durP2;ratioP2;P2;SDS_P1;SDS_P2;PMS_P1;PMS_P2;Temp;Humidity;BMP_temperature;BMP_pressure;BME280_temperature;BME280_humidity;BME280_pressure;Samples;Min_cycle;Max_cycle;Signal;HPM_P1;HPM_P2
2023/03/09 00:01:43;;;;;;;27.60;21.38;;;;;;;2.24;96.56;98976.09;5054625;28;20029;-39
2023/03/09 00:04:15;;;;;;;36.50;26.88;;;;;;;2.23;95.75;98974.47;5054685;28;20040;-40
2023/03/09 00:06:41;;;;;;;29.08;22.33;;;;;;;2.22;96.45;98967.41;5054541;28;20443;-39
2023/03/09 00:09:07;;;;;;;30.08;22.35;;;;;;;2.17;96.20;98971.03;5054189;28;20032;-41
2023/03/09 00:11:33;;;;;;;28.73;21.98;;;;;;;2.16;96.05;98960.41;5053118;28;20052;-39
2023/03/09 00:13:59;;;;;;;28.15;21.50;;;;;;;2.13;96.28;98944.63;5054510;28;20104;-40
2023/03/09 00:16:27;;;;;;;27.20;20.80;;;;;;;2.12;96.37;98941.09;5054363;28;20519;-39
2023/03/09 00:18:56;;;;;;;27.45;21.17;;;;;;;2.22;96.55;98964.69;5054178;28;20407;-39
2023/03/09 00:21:34;;;;;;;27.48;21.20;;;;;;;2.22;96.36;98972.84;5053135;28;20024;-40
2023/03/09 00:24:04;;;;;;;28.40;21.17;;;;;;;2.22;96.25;98964.69;5054600;28;20064;-40
2023/03/09 00:26:30;;;;;;;29.42;22.73;;;;;;;2.27;96.63;98958.31;5053935;28;20025;-40
2023/03/09 00:28:55;;;;;;;26.60;20.27;;;;;;;2.26;96.65;98954.81;5054167;28;20683;-39
2023/03/09 00:31:20;;;;;;;28.17;20.90;;;;;;;2.28;96.15;98973.59;5054412;28;20066;-40
2023/03/09 00:33:49;;;;;;;27.60;21.25;;;;;;;2.28;96.62;98982.56;5054121;28;20086;-39
2023/03/09 00:36:16;;;;;;;27.02;20.70;;;;;;;2.34;96.21;98991.50;5053859;28;20108;-40
2023/03/09 00:38:41;;;;;;;27.83;20.80;;;;;;;2.36;95.45;98985.75;5053206;28;20117;-40
2023/03/09 00:41:07;;;;;;;28.33;21.30;;;;;;;2.30;95.79;98994.00;5053269;28;20111;-40
2023/03/09 00:43:32;;;;;;;28.20;21.00;;;;;;;2.32;95.83;98996.44;5053000;28;20021;-41
2023/03/09 00:45:57;;;;;;;26.67;20.10;;;;;;;2.36;96.17;98996.69;5052625;28;20033;-40
2023/03/09 00:48:23;;;;;;;27.55;20.42;;;;;;;2.38;96.64;99008.09;5052829;28;20036;-40
2023/03/09 00:50:49;;;;;;;27.75;21.23;;;;;;;2.34;96.02;99010.59;5052978;28;20485;-40
2023/03/09 00:53:14;;;;;;;29.33;21.58;;;;;;;2.30;95.75;99007.66;5053130;28;20115;-40
2023/03/09 00:55:39;;;;;;;34.83;25.90;;;;;;;2.31;95.76;99017.47;5051671;28;20059;-40
2023/03/09 00:58:05;;;;;;;31.15;22.45;;;;;;;2.31;96.02;99030.31;5052849;28;20102;-40
2023/03/09 01:00:33;;;;;;;30.70;22.85;;;;;;;2.29;96.26;99022.41;5052864;28;20029;-39
2023/03/09 01:02:58;;;;;;;35.60;25.45;;;;;;;2.31;96.75;99024.84;5051511;28;20051;-39
2023/03/09 01:05:23;;;;;;;32.38;23.45;;;;;;;2.36;96.39;99024.75;5052911;28;20499;-39
2023/03/09 01:07:49;;;;;;;30.98;23.42;;;;;;;2.26;95.36;99031.19;5052746;28;20033;-39
2023/03/09 01:10:14;;;;;;;30.95;22.42;;;;;;;2.26;95.65;99033.09;5052796;28;20036;-39
2023/03/09 01:12:40;;;;;;;32.67;23.60;;;;;;;2.29;97.19;99036.06;5052018;28;20036;-40
2023/03/09 01:15:06;;;;;;;31.17;22.70;;;;;;;2.29;96.42;99044.22;5051373;28;20029;-40
2023/03/09 01:17:31;;;;;;;32.72;25.02;;;;;;;2.31;96.06;99054.88;5051296;28;20032;-40
2023/03/09 01:19:56;;;;;;;34.22;25.40;;;;;;;2.29;96.17;99057.88;5052504;28;20067;-41
2023/03/09 01:22:21;;;;;;;31.40;23.13;;;;;;;2.27;95.89;99062.81;5051036;28;20036;-39
2023/03/09 01:24:47;;;;;;;31.05;22.85;;;;;;;2.30;96.62;99066.91;5052591;28;20029;-40
2023/03/09 01:27:12;;;;;;;30.42;21.77;;;;;;;2.31;96.22;99073.97;5052440;28;20031;-39
2023/03/09 01:29:38;;;;;;;30.85;22.42;;;;;;;2.29;96.58;99070.72;5052737;28;20464;-40
2023/03/09 01:32:03;;;;;;;30.00;22.05;;;;;;;2.28;96.35;99071.81;5052378;28;20476;-39
2023/03/09 01:34:29;;;;;;;29.85;22.17;;;;;;;2.21;96.40;99055.81;5052392;28;20059;-40
2023/03/09 01:36:54;;;;;;;32.65;24.23;;;;;;;2.25;96.22;99067.78;5050910;28;20074;-40
2023/03/09 01:39:20;;;;;;;28.52;20.85;;;;;;;2.24;95.96;99073.50;5048577;28;20412;-40
2023/03/09 01:41:45;;;;;;;37.08;26.83;;;;;;;2.23;96.39;99089.09;5052168;28;20025;-40
2023/03/09 01:44:12;;;;;;;44.22;31.67;;;;;;;2.18;96.73;99097.31;5052227;28;20025;-40
2023/03/09 01:46:56;;;;;;;37.20;27.05;;;;;;;2.11;96.97;99092.25;5047537;28;20025;-40
2023/03/09 01:49:30;;;;;;;31.20;22.77;;;;;;;2.04;97.20;99099.94;5043166;28;20472;-40
2023/03/09 01:52:05;;;;;;;33.38;25.27;;;;;;;1.99;97.34;99103.56;5052179;28;20029;-40
2023/03/09 01:54:36;;;;;;;30.58;23.25;;;;;;;1.95;97.50;99094.34;5052164;28;20037;-39
2023/03/09 01:57:26;;;;;;;31.27;22.70;;;;;;;1.91;97.76;99095.22;5051715;28;20033;-40
2023/03/09 01:59:55;;;;;;;31.33;22.90;;;;;;;1.96;98.36;99111.50;5051491;28;20082;-39
2023/03/09 02:02:24;;;;;;;34.47;25.02;;;;;;;1.89;97.96;99111.84;5052041;28;20124;-40
2023/03/09 02:04:55;;;;;;;32.22;22.83;;;;;;;1.90;98.14;99135.31;5051948;28;20037;-40
2023/03/09 02:07:23;;;;;;;37.47;27.75;;;;;;;1.83;98.64;99119.31;5051884;28;20029;-41
2023/03/09 02:09:53;;;;;;;30.02;22.25;;;;;;;1.85;98.38;99119.81;5051803;28;20646;-40
2023/03/09 02:12:21;;;;;;;31.77;23.58;;;;;;;1.81;98.96;99118.78;5050559;28;20547;-40
2023/03/09 02:14:46;;;;;;;37.45;28.10;;;;;;;1.89;98.78;99130.16;5051704;28;20076;-41
2023/03/09 02:17:13;;;;;;;31.20;23.23;;;;;;;1.87;99.10;99125.00;5051823;28;20115;-40
2023/03/09 02:19:53;;;;;;;30.73;22.95;;;;;;;1.89;99.50;99141.06;5051742;28;20029;-40
2023/03/09 02:22:19;;;;;;;32.38;23.38;;;;;;;1.88;99.16;99140.25;5051649;28;20471;-40
2023/03/09 02:24:59;;;;;;;32.10;23.50;;;;;;;1.89;99.06;99139.13;5055512;28;20028;-40
2023/03/09 02:27:26;;;;;;;31.65;23.50;;;;;;;1.83;99.02;99123.94;5055987;28;20035;-39
2023/03/09 02:29:53;;;;;;;33.90;24.52;;;;;;;1.89;99.54;99139.13;5055838;28;20029;-40
2023/03/09 02:32:18;;;;;;;35.08;25.42;;;;;;;1.93;99.56;99150.28;5055736;28;20032;-39
2023/03/09 02:34:44;;;;;;;38.35;26.33;;;;;;;1.92;98.47;99167.75;5055571;28;20221;-40
2023/03/09 02:37:33;;;;;;;39.72;27.77;;;;;;;1.87;100.00;99153.06;5055732;28;20025;-40
2023/03/09 02:40:26;;;;;;;33.45;25.70;;;;;;;1.94;100.00;99160.91;5052793;28;20025;-40
2023/03/09 02:42:52;;;;;;;38.40;26.10;;;;;;;1.92;99.72;99154.91;5054363;28;20507;-40
2023/03/09 02:45:21;;;;;;;33.63;23.98;;;;;;;1.91;100.00;99150.56;5055772;28;20366;-40
2023/03/09 02:47:47;;;;;;;32.75;23.90;;;;;;;1.95;100.00;99150.78;5055140;28;20029;-40
2023/03/09 02:50:13;;;;;;;32.97;22.85;;;;;;;1.99;100.00;99155.38;5055814;28;20044;-40
2023/03/09 02:52:38;;;;;;;33.17;24.17;;;;;;;1.99;99.36;99166.28;5055960;28;20029;-40
2023/03/09 02:55:05;;;;;;;33.25;24.23;;;;;;;2.00;99.61;99164.41;5055823;28;20027;-40
2023/03/09 02:57:30;;;;;;;38.63;27.00;;;;;;;1.98;100.00;99172.88;5054203;28;20183;-40
2023/03/09 02:59:55;;;;;;;40.00;27.02;;;;;;;1.99;99.62;99165.50;5055641;28;20143;-39
2023/03/09 03:02:20;;;;;;;44.97;30.92;;;;;;;1.96;99.61;99166.88;5055465;28;20021;-39
2023/03/09 03:04:46;;;;;;;38.50;27.42;;;;;;;1.93;98.92;99167.47;5055222;28;20035;-40
2023/03/09 03:07:11;;;;;;;37.63;26.50;;;;;;;1.89;99.15;99174.59;5055187;28;20478;-39
2023/03/09 03:09:36;;;;;;;36.40;26.10;;;;;;;1.88;99.01;99170.25;5055149;28;20032;-40
2023/03/09 03:12:02;;;;;;;40.95;28.60;;;;;;;1.86;99.77;99177.91;5055043;28;20123;-40
2023/03/09 03:14:27;;;;;;;36.63;25.63;;;;;;;1.83;100.00;99171.13;5054938;28;20048;-40
2023/03/09 03:16:53;;;;;;;38.55;26.27;;;;;;;1.81;99.47;99176.03;5055042;28;20064;-40
2023/03/09 03:19:19;;;;;;;36.80;25.55;;;;;;;1.83;99.89;99170.28;5054811;28;20029;-40
2023/03/09 03:21:44;;;;;;;37.40;26.70;;;;;;;1.82;100.00;99165.94;5054981;28;20033;-41
2023/03/09 03:24:09;;;;;;;37.67;25.90;;;;;;;1.81;99.93;99184.22;5054855;28;20380;-40
2023/03/09 03:26:35;;;;;;;36.95;26.05;;;;;;;1.82;100.00;99187.75;5054797;28;20119;-39
2023/03/09 03:29:00;;;;;;;35.50;25.92;;;;;;;1.86;100.00;99186.88;5054691;28;20043;-41
2023/03/09 03:31:25;;;;;;;35.53;25.42;;;;;;;1.85;100.00;99198.91;5054760;28;20033;-40
2023/03/09 03:33:50;;;;;;;35.95;25.65;;;;;;;1.96;100.00;99191.44;5054534;28;20083;-40
2023/03/09 03:36:16;;;;;;;39.67;26.52;;;;;;;1.97;100.00;99203.97;5053976;28;20028;-40
2023/03/09 03:38:41;;;;;;;36.92;26.33;;;;;;;1.96;99.32;99206.97;5051450;28;20027;-40
2023/03/09 03:41:06;;;;;;;36.08;26.08;;;;;;;1.98;100.00;99219.25;5054616;28;20070;-40
2023/03/09 03:43:32;;;;;;;35.85;26.42;;;;;;;1.94;99.85;99225.53;5054449;28;20025;-39
2023/03/09 03:45:57;;;;;;;38.05;26.73;;;;;;;1.95;99.33;99218.97;5054539;28;20486;-40
2023/03/09 03:48:22;;;;;;;38.33;26.48;;;;;;;1.90;99.28;99228.03;5054307;28;20029;-39
2023/03/09 03:50:48;;;;;;;38.67;27.27;;;;;;;1.90;100.00;99222.56;5054231;28;20027;-39
2023/03/09 03:53:13;;;;;;;38.42;26.92;;;;;;;1.93;100.00;99243.81;5054076;28;20029;-39
2023/03/09 03:55:38;;;;;;;39.85;27.42;;;;;;;1.92;100.00;99242.19;5054210;28;20384;-40
2023/03/09 03:58:03;;;;;;;41.20;27.13;;;;;;;1.94;100.00;99245.47;5054007;28;20113;-39
2023/03/09 04:00:29;;;;;;;38.80;26.17;;;;;;;1.91;99.96;99237.03;5054311;28;20070;-40
2023/03/09 04:02:54;;;;;;;39.25;26.85;;;;;;;1.93;99.68;99251.22;5054108;28;20090;-40
2023/03/09 04:05:21;;;;;;;39.92;27.65;;;;;;;1.94;100.00;99250.91;5053988;28;20060;-39
2023/03/09 04:07:47;;;;;;;38.70;27.90;;;;;;;1.94;99.72;99250.91;5053737;28;20040;-42
2023/03/09 04:10:13;;;;;;;38.92;27.45;;;;;;;1.87;99.28;99258.63;5053340;28;20029;-40
2023/03/09 04:12:38;;;;;;;40.35;28.77;;;;;;;1.86;99.64;99257.00;5053715;28;20499;-40
2023/03/09 04:15:05;;;;;;;40.63;28.75;;;;;;;1.84;99.59;99272.81;5053816;28;20032;-40
2023/03/09 04:17:30;;;;;;;40.92;29.20;;;;;;;1.85;99.45;99264.34;5053613;28;20028;-40
2023/03/09 04:19:56;;;;;;;44.53;31.88;;;;;;;1.84;100.00;99272.81;5053722;28;20387;-39
2023/03/09 04:22:21;;;;;;;44.58;29.80;;;;;;;1.86;100.00;99284.25;5053934;28;20528;-40
2023/03/09 04:24:49;;;;;;;44.00;29.77;;;;;;;1.87;100.00;99297.59;5053667;28;20524;-39
2023/03/09 04:27:15;;;;;;;43.13;30.95;;;;;;;1.90;100.00;99281.78;5053727;28;20036;-40
2023/03/09 04:29:40;;;;;;;44.50;30.52;;;;;;;1.90;99.52;99276.31;5053523;28;20488;-40
2023/03/09 04:32:06;;;;;;;43.50;31.80;;;;;;;1.90;99.42;99279.84;5053416;28;20499;-40
2023/03/09 04:34:31;;;;;;;42.78;30.10;;;;;;;1.86;99.98;99285.06;5053462;28;20033;-40
2023/03/09 04:36:57;;;;;;;46.17;32.22;;;;;;;1.89;100.00;99288.31;5053510;28;20519;-39
2023/03/09 04:39:23;;;;;;;44.90;31.05;;;;;;;1.89;99.47;99282.88;5049633;28;20112;-39
2023/03/09 04:41:48;;;;;;;44.13;31.45;;;;;;;1.93;100.00;99283.94;5053779;28;20107;-40
2023/03/09 04:44:13;;;;;;;46.13;32.08;;;;;;;2.00;100.00;99290.66;5053143;28;20107;-40
2023/03/09 04:46:39;;;;;;;43.40;30.85;;;;;;;2.05;100.00;99289.81;5052131;28;20031;-39
2023/03/09 04:49:05;;;;;;;47.03;32.30;;;;;;;2.02;98.88;99293.91;5053409;28;20391;-41
2023/03/09 04:51:30;;;;;;;45.60;31.83;;;;;;;2.00;99.74;99301.56;5053190;28;20029;-41
2023/03/09 04:53:55;;;;;;;45.90;29.95;;;;;;;1.98;99.15;99311.97;5053199;28;20032;-39
2023/03/09 04:56:21;;;;;;;43.05;30.67;;;;;;;1.96;99.08;99316.91;5053138;28;20028;-38
2023/03/09 04:58:46;;;;;;;45.10;32.45;;;;;;;1.92;99.12;99332.19;5052760;28;20041;-41
2023/03/09 05:01:12;;;;;;;44.20;31.77;;;;;;;1.85;99.02;99334.44;5053063;28;20121;-38
2023/03/09 05:03:37;;;;;;;45.97;31.50;;;;;;;1.81;99.73;99336.94;5052838;28;20368;-39
2023/03/09 05:06:03;;;;;;;43.80;30.83;;;;;;;1.86;99.66;99342.34;5052547;28;20191;-38
2023/03/09 05:08:28;;;;;;;43.22;31.13;;;;;;;1.91;99.38;99338.75;5052817;28;20033;-38
2023/03/09 05:10:54;;;;;;;41.65;30.45;;;;;;;1.96;100.00;99340.63;5052847;28;20028;-38
2023/03/09 05:13:20;;;;;;;45.08;30.25;;;;;;;1.96;100.00;99330.53;5052641;28;20031;-39
2023/03/09 05:15:45;;;;;;;43.40;29.98;;;;;;;2.00;99.43;99344.41;5052497;28;20442;-41
2023/03/09 05:18:11;;;;;;;40.90;29.42;;;;;;;1.98;99.05;99350.16;5052694;28;20033;-40
2023/03/09 05:20:37;;;;;;;43.20;29.35;;;;;;;1.93;98.71;99355.66;5052486;28;20361;-42
2023/03/09 05:23:03;;;;;;;42.90;30.38;;;;;;;1.89;99.84;99356.50;5052726;28;20025;-39
2023/03/09 05:25:28;;;;;;;42.42;30.10;;;;;;;1.85;99.16;99353.53;5052572;28;20032;-39
2023/03/09 05:27:54;;;;;;;42.13;30.30;;;;;;;1.83;99.79;99369.34;5052435;28;20082;-39
2023/03/09 05:30:19;;;;;;;40.42;28.52;;;;;;;1.79;100.00;99352.75;5052441;28;20078;-39
2023/03/09 05:32:46;;;;;;;42.40;29.55;;;;;;;1.87;100.00;99359.53;5052396;28;20036;-39
2023/03/09 05:35:11;;;;;;;44.70;28.45;;;;;;;1.90;100.00;99358.94;5052379;28;20053;-39
2023/03/09 05:37:37;;;;;;;39.83;27.65;;;;;;;1.91;100.00;99346.13;5052386;28;20485;-39
2023/03/09 05:40:04;;;;;;;40.42;28.38;;;;;;;1.90;99.76;99352.69;5048550;28;20031;-38
2023/03/09 05:42:31;;;;;;;40.00;28.67;;;;;;;1.93;99.95;99357.56;5052186;28;20113;-38
2023/03/09 05:44:56;;;;;;;40.97;29.27;;;;;;;1.91;99.59;99355.09;5051938;28;20033;-38
2023/03/09 05:47:21;;;;;;;41.50;27.73;;;;;;;1.91;99.77;99351.59;5052108;28;20605;-38
2023/03/09 05:49:48;;;;;;;41.13;28.95;;;;;;;1.79;99.56;99341.84;5052009;28;20054;-38
2023/03/09 05:52:14;;;;;;;41.90;28.85;;;;;;;1.84;100.00;99351.91;5052312;28;20029;-39
2023/03/09 05:54:39;;;;;;;42.22;28.25;;;;;;;1.83;100.00;99353.00;5051829;28;20518;-38
2023/03/09 05:57:05;;;;;;;38.47;27.05;;;;;;;1.83;100.00;99359.28;5051694;28;20028;-39
2023/03/09 05:59:30;;;;;;;42.03;28.45;;;;;;;1.86;100.00;99366.06;5051420;28;20028;-38
2023/03/09 06:01:55;;;;;;;40.35;27.25;;;;;;;1.84;100.00;99351.91;5051796;28;20452;-40
2023/03/09 06:04:22;;;;;;;41.10;28.33;;;;;;;1.82;99.62;99373.19;5051792;28;20152;-39
2023/03/09 06:06:47;;;;;;;40.95;28.52;;;;;;;1.81;100.00;99385.19;5052079;28;20092;-40
2023/03/09 06:09:12;;;;;;;41.97;29.23;;;;;;;1.83;100.00;99396.63;5051887;28;20025;-39
2023/03/09 06:11:37;;;;;;;41.42;28.13;;;;;;;1.80;100.00;99398.00;5051239;28;20029;-39
2023/03/09 06:14:03;;;;;;;44.17;29.58;;;;;;;1.79;99.94;99401.84;5050910;28;20468;-40
2023/03/09 06:16:28;;;;;;;40.55;27.75;;;;;;;1.75;99.82;99392.59;5036315;28;20041;-39
2023/03/09 06:18:55;;;;;;;40.85;28.08;;;;;;;1.73;100.00;99386.63;5044208;28;20414;-39
2023/03/09 06:21:20;;;;;;;41.63;29.08;;;;;;;1.71;100.00;99380.63;5051106;28;20045;-41
2023/03/09 06:23:46;;;;;;;40.88;28.17;;;;;;;1.69;100.00;99386.38;5051207;28;20090;-40
2023/03/09 06:26:12;;;;;;;41.65;27.77;;;;;;;1.73;100.00;99415.78;5051181;28;20025;-40
2023/03/09 06:28:38;;;;;;;42.83;27.92;;;;;;;1.75;100.00;99416.31;5051043;28;20021;-39
2023/03/09 06:31:11;;;;;;;41.17;27.70;;;;;;;1.76;100.00;99426.13;5050492;28;20430;-39
2023/03/09 06:33:37;;;;;;;;;;;;;;;1.83;100.00;99434.81;5051290;28;20036;-40
2023/03/09 06:36:02;;;;;;;40.65;26.20;;;;;;;1.81;100.00;99432.38;5050516;28;19908;-39
2023/03/09 06:38:28;;;;;;;42.17;27.17;;;;;;;1.81;100.00;99437.81;5047355;28;20033;-39
2023/03/09 06:40:54;;;;;;;43.08;27.83;;;;;;;1.80;100.00;99458.00;5049906;28;20566;-39
2023/03/09 06:43:19;;;;;;;41.22;27.40;;;;;;;1.82;100.00;99446.81;5051604;28;20021;-39
2023/03/09 06:45:45;;;;;;;41.97;26.90;;;;;;;1.82;100.00;99450.38;5051680;28;20072;-39
2023/03/09 06:48:11;;;;;;;40.47;27.17;;;;;;;1.82;99.96;99455.00;5051651;28;20480;-39
2023/03/09 06:50:36;;;;;;;42.08;27.38;;;;;;;1.79;100.00;99456.38;5051688;28;20136;-39
2023/03/09 06:53:02;;;;;;;41.40;26.70;;;;;;;1.78;100.00;99446.56;5050036;28;20391;-40
2023/03/09 06:55:28;;;;;;;39.90;26.48;;;;;;;1.82;100.00;99441.34;5051505;28;20025;-40
2023/03/09 06:57:53;;;;;;;42.38;27.30;;;;;;;1.85;100.00;99455.22;5051447;28;20049;-40
2023/03/09 07:00:19;;;;;;;40.70;26.73;;;;;;;1.89;100.00;99469.13;5051535;28;20036;-39
2023/03/09 07:02:44;;;;;;;41.72;27.73;;;;;;;1.95;100.00;99491.72;5051794;28;20543;-41
2023/03/09 07:05:10;;;;;;;40.10;27.70;;;;;;;1.94;100.00;99504.56;5050484;28;20032;-41
2023/03/09 07:07:35;;;;;;;39.10;26.80;;;;;;;1.99;100.00;99501.78;5050436;28;20037;-40
2023/03/09 07:10:01;;;;;;;40.15;27.08;;;;;;;2.07;100.00;99507.78;5050775;28;20037;-40
2023/03/09 07:12:26;;;;;;;39.15;26.63;;;;;;;2.20;100.00;99498.13;5055079;28;20025;-40
2023/03/09 07:14:52;;;;;;;41.47;26.83;;;;;;;2.28;100.00;99503.78;5054658;28;20036;-41
2023/03/09 07:17:17;;;;;;;39.15;26.65;;;;;;;2.38;100.00;99513.00;5053864;28;20032;-41
2023/03/09 07:19:42;;;;;;;40.92;26.60;;;;;;;2.39;100.00;99525.56;5053399;28;20571;-41
2023/03/09 07:22:09;;;;;;;43.45;27.92;;;;;;;2.41;99.25;99546.00;5053372;28;20036;-40
2023/03/09 07:24:36;;;;;;;39.33;25.42;;;;;;;2.41;98.26;99556.91;5053787;28;20040;-40
2023/03/09 07:27:01;;;;;;;40.83;25.65;;;;;;;2.37;98.29;99549.59;5054151;28;20120;-41
2023/03/09 07:29:26;;;;;;;42.55;27.55;;;;;;;2.39;99.05;99563.78;5053455;28;20104;-41
2023/03/09 07:31:52;;;;;;;40.42;26.42;;;;;;;2.37;98.88;99565.97;5054448;28;20017;-40
2023/03/09 07:34:17;;;;;;;39.53;26.17;;;;;;;2.38;98.91;99551.22;5054715;28;20071;-40
2023/03/09 07:36:42;;;;;;;42.35;27.80;;;;;;;2.50;98.93;99551.69;5054739;28;20029;-40
2023/03/09 07:39:07;;;;;;;41.13;27.13;;;;;;;2.53;98.31;99562.06;5054734;28;20025;-41
2023/03/09 07:41:33;;;;;;;41.20;26.52;;;;;;;2.60;99.07;99565.25;5054553;28;20539;-40
2023/03/09 07:43:58;;;;;;;40.38;26.58;;;;;;;2.79;98.93;99572.78;5054491;28;20033;-41
2023/03/09 07:46:24;;;;;;;41.17;26.17;;;;;;;2.94;97.28;99572.63;5054384;28;20079;-39
2023/03/09 07:48:50;;;;;;;39.78;25.13;;;;;;;2.98;96.25;99581.06;5054555;28;20388;-40
2023/03/09 07:51:15;;;;;;;41.85;25.95;;;;;;;2.95;95.92;99568.81;5054464;28;20033;-40
2023/03/09 07:53:40;;;;;;;41.40;27.27;;;;;;;2.97;95.73;99569.34;5054515;28;20059;-41
2023/03/09 07:56:07;;;;;;;42.40;26.70;;;;;;;2.94;95.20;99575.38;5053170;28;20116;-41
2023/03/09 07:58:35;;;;;;;40.72;27.33;;;;;;;2.89;96.67;99555.47;5053418;28;20068;-40
2023/03/09 08:01:00;;;;;;;41.67;27.25;;;;;;;2.95;95.98;99568.81;5047492;22;20049;-39
2023/03/09 08:03:27;;;;;;;39.63;25.33;;;;;;;2.98;96.34;99586.53;5049829;28;20043;-41
2023/03/09 08:05:55;;;;;;;40.08;26.98;;;;;;;2.97;95.27;99588.47;5032887;28;20021;-41
2023/03/09 08:08:27;;;;;;;42.17;27.13;;;;;;;2.96;94.43;99599.69;5041453;28;20098;-40
2023/03/09 08:10:52;;;;;;;40.20;25.45;;;;;;;3.00;95.17;99597.19;5052874;28;20084;-40
2023/03/09 08:13:19;;;;;;;38.47;25.55;;;;;;;3.08;95.93;99591.91;5052828;28;20503;-43
2023/03/09 08:15:45;;;;;;;41.50;26.52;;;;;;;3.12;95.39;99592.16;5052933;28;20117;-40
2023/03/09 08:18:12;;;;;;;41.05;26.25;;;;;;;3.18;95.79;99601.13;5032377;28;20108;-40
2023/03/09 08:20:38;;;;;;;40.97;26.75;;;;;;;3.13;94.50;99610.19;5032586;28;20068;-40
2023/03/09 08:23:04;;;;;;;38.88;25.25;;;;;;;3.13;95.08;99618.38;5033597;28;20092;-40
2023/03/09 08:25:30;;;;;;;41.45;27.25;;;;;;;3.17;94.14;99640.47;5032558;28;20021;-40
2023/03/09 08:27:56;;;;;;;41.35;26.33;;;;;;;3.17;94.27;99630.38;5032809;28;20492;-41
2023/03/09 08:30:21;;;;;;;40.47;26.48;;;;;;;3.23;93.77;99618.28;5032874;28;20041;-42
2023/03/09 08:32:48;;;;;;;40.90;26.48;;;;;;;3.33;93.26;99624.75;5026245;28;20038;-40
2023/03/09 08:35:20;;;;;;;40.25;26.30;;;;;;;3.36;93.00;99632.41;5031714;28;20493;-40
2023/03/09 08:37:45;;;;;;;37.72;24.80;;;;;;;3.41;93.94;99635.91;5031873;28;20083;-41
2023/03/09 08:40:12;;;;;;;41.67;26.75;;;;;;;3.25;92.38;99607.91;5032408;28;20455;-41
2023/03/09 08:42:38;;;;;;;43.08;28.38;;;;;;;3.32;93.18;99634.06;5014906;28;20041;-42
2023/03/09 08:45:05;;;;;;;40.78;26.58;;;;;;;3.36;92.88;99641.41;5032393;28;20021;-40
2023/03/09 08:47:31;;;;;;;39.35;25.27;;;;;;;3.37;93.61;99639.50;5032392;28;20034;-41
2023/03/09 08:49:56;;;;;;;42.10;27.63;;;;;;;3.37;93.29;99640.31;5031887;28;20032;-40
2023/03/09 08:52:22;;;;;;;44.33;27.83;;;;;;;3.23;93.44;99621.03;5030502;28;20033;-41
2023/03/09 08:54:49;;;;;;;41.33;28.20;;;;;;;3.47;93.02;99654.97;5031589;28;20053;-41
2023/03/09 08:57:14;;;;;;;42.00;26.75;;;;;;;3.50;94.01;99652.50;5030143;28;20502;-40
2023/03/09 08:59:43;;;;;;;41.88;27.02;;;;;;;3.51;93.77;99645.13;5031085;28;20077;-41
2023/03/09 09:02:14;;;;;;;41.55;27.55;;;;;;;3.52;94.10;99639.34;5031201;28;20033;-40
2023/03/09 09:04:46;;;;;;;41.50;26.83;;;;;;;3.61;93.74;99652.38;5031433;28;20081;-39
2023/03/09 09:07:14;;;;;;;42.03;28.17;;;;;;;3.66;93.31;99644.16;5031178;28;20037;-41
2023/03/09 09:09:40;;;;;;;42.13;26.75;;;;;;;3.65;92.76;99640.59;5030167;28;20029;-41
2023/03/09 09:12:05;;;;;;;41.17;27.02;;;;;;;3.73;92.56;99671.97;5031505;28;20045;-41
2023/03/09 09:14:32;;;;;;;40.95;26.60;;;;;;;3.66;92.33;99675.03;5030103;28;20038;-41
2023/03/09 09:16:57;;;;;;;40.80;26.92;;;;;;;3.60;92.47;99681.66;5031842;28;20018;-39
2023/03/09 09:19:23;;;;;;;42.55;27.40;;;;;;;3.57;92.99;99683.06;5030097;28;20382;-39
2023/03/09 09:21:48;;;;;;;41.22;27.35;;;;;;;3.52;93.08;99690.50;5031714;28;20025;-39
2023/03/09 09:24:14;;;;;;;40.45;26.75;;;;;;;3.46;93.74;99687.00;5031961;28;20043;-39
2023/03/09 09:26:40;;;;;;;45.25;30.23;;;;;;;3.50;93.36;99704.44;5031685;28;20587;-39
2023/03/09 09:29:06;;;;;;;42.30;27.38;;;;;;;3.54;93.96;99712.91;5031462;28;20044;-39
2023/03/09 09:31:32;;;;;;;42.33;27.75;;;;;;;3.55;94.27;99712.63;5029398;28;20021;-40
2023/03/09 09:33:58;;;;;;;42.38;28.42;;;;;;;3.56;94.68;99686.91;5036810;28;20127;-39
2023/03/09 09:36:24;;;;;;;42.63;27.67;;;;;;;3.63;93.50;99688.47;5040358;28;20496;-41
2023/03/09 09:38:52;;;;;;;43.80;28.10;;;;;;;3.71;94.01;99685.09;5031227;28;20044;-41
2023/03/09 09:41:22;;;;;;;42.40;27.40;;;;;;;3.72;93.59;99675.81;5029437;28;20037;-40
2023/03/09 09:43:52;;;;;;;41.72;27.25;;;;;;;3.74;93.20;99665.41;5031068;28;20088;-39
2023/03/09 09:46:20;;;;;;;43.25;28.00;;;;;;;3.78;92.97;99674.63;5030950;28;20021;-40
2023/03/09 09:48:47;;;;;;;44.00;28.58;;;;;;;3.89;93.31;99692.59;5030789;28;20056;-40
2023/03/09 09:51:26;;;;;;;42.35;29.63;;;;;;;3.92;93.54;99687.63;5030718;28;20042;-40
2023/03/09 09:54:18;;;;;;;41.60;26.60;;;;;;;3.99;93.22;99690.84;5031061;28;20049;-40
2023/03/09 09:56:50;;;;;;;41.58;26.98;;;;;;;4.03;93.56;99703.66;5030786;28;20032;-40
2023/03/09 09:59:36;;;;;;;43.53;28.02;;;;;;;4.10;93.86;99714.25;5030151;28;20057;-40
2023/03/09 10:02:10;;;;;;;41.00;27.50;;;;;;;4.09;92.79;99714.56;5029945;28;20127;-41
2023/03/09 10:04:46;;;;;;;43.45;28.30;;;;;;;4.05;92.59;99714.34;5030873;28;20033;-40
2023/03/09 10:07:15;;;;;;;41.55;27.27;;;;;;;3.99;93.32;99720.94;5030161;28;20030;-40
2023/03/09 10:09:44;;;;;;;44.25;28.00;;;;;;;3.94;93.29;99726.50;5030870;28;20040;-40
2023/03/09 10:12:14;;;;;;;43.22;28.92;;;;;;;3.93;94.25;99722.91;5031206;28;20033;-39
2023/03/09 10:14:51;;;;;;;43.72;27.77;;;;;;;3.93;94.19;99714.72;5031114;28;20045;-40
2023/03/09 10:17:38;;;;;;;44.97;29.33;;;;;;;3.97;93.76;99712.22;5029930;28;20102;-40
2023/03/09 10:20:27;;;;;;;43.03;27.50;;;;;;;3.97;93.45;99720.44;5030826;28;20033;-40
2023/03/09 10:22:55;;;;;;;41.70;27.80;;;;;;;3.92;93.29;99704.06;5030797;28;20033;-40
2023/03/09 10:25:23;;;;;;;43.75;28.90;;;;;;;4.00;93.12;99720.69;5030859;28;20647;-40
2023/03/09 10:28:02;;;;;;;42.05;28.00;;;;;;;4.01;94.50;99711.38;5030735;28;20057;-40
2023/03/09 10:30:44;;;;;;;43.65;27.40;;;;;;;4.06;94.44;99721.44;5030584;28;20032;-39
2023/03/09 10:33:29;;;;;;;42.10;27.90;;;;;;;4.11;93.58;99720.56;5030512;28;20033;-40
2023/03/09 10:36:04;;;;;;;43.40;27.75;;;;;;;4.11;93.29;99704.16;5030578;28;20501;-41
2023/03/09 10:38:29;;;;;;;45.60;29.38;;;;;;;4.21;93.82;99704.84;5030422;28;20090;-40
2023/03/09 10:40:56;;;;;;;43.58;27.85;;;;;;;4.22;94.06;99709.22;5030246;28;20057;-40
2023/03/09 10:43:33;;;;;;;44.53;28.23;;;;;;;4.14;93.59;99690.69;5030330;28;20030;-39
2023/03/09 10:46:13;;;;;;;42.88;27.95;;;;;;;4.21;93.92;99706.75;5032395;28;20026;-40
2023/03/09 10:48:38;;;;;;;41.63;26.85;;;;;;;4.25;93.71;99712.47;5033870;28;20038;-40
2023/03/09 10:51:05;;;;;;;43.63;27.75;;;;;;;4.25;93.89;99713.28;5033961;28;20112;-39
2023/03/09 10:53:43;;;;;;;42.17;27.88;;;;;;;4.35;93.49;99707.69;5032632;28;20029;-40
2023/03/09 10:56:23;;;;;;;44.55;28.88;;;;;;;4.43;94.23;99708.97;5034186;28;20046;-39
2023/03/09 10:59:07;;;;;;;42.92;27.98;;;;;;;4.48;94.16;99725.31;5033816;28;20041;-40
2023/03/09 11:01:37;;;;;;;44.97;28.75;;;;;;;4.50;93.29;99725.03;5034016;28;20036;-40
2023/03/09 11:04:23;;;;;;;42.42;26.98;;;;;;;4.56;93.44;99729.34;5034096;28;20041;-40
2023/03/09 11:06:53;;;;;;;41.63;27.88;;;;;;;4.52;92.62;99725.56;5033992;28;20029;-40
2023/03/09 11:09:24;;;;;;;43.30;28.08;;;;;;;4.49;92.82;99716.00;5018269;28;20104;-40
2023/03/09 11:11:49;;;;;;;45.83;29.48;;;;;;;4.55;93.40;99722.22;5013903;28;20026;-41
2023/03/09 11:14:29;;;;;;;43.33;27.98;;;;;;;4.53;92.78;99697.06;5013801;28;20373;-41
2023/03/09 11:16:57;;;;;;;44.65;28.58;;;;;;;4.56;91.82;99712.06;5014007;28;20049;-40
2023/03/09 11:19:23;;;;;;;42.38;27.75;;;;;;;4.52;92.08;99703.63;5012464;28;20045;-40
2023/03/09 11:22:12;;;;;;;41.85;26.88;;;;;;;4.63;91.93;99710.63;5014159;28;20033;-39
2023/03/09 11:24:44;;;;;;;41.53;26.52;;;;;;;4.60;92.91;99699.44;5020456;28;20041;-40
2023/03/09 11:27:26;;;;;;;41.38;27.35;;;;;;;4.67;93.39;99708.94;5009762;28;20471;-44